< < Back
Terminal Aerodrome Forecast


Current Version              Previous Versions:   1  2  3  4  5  6  7  8  9  

Terminal Aerodrome Forecast

362
FTUS42 KFFC 212032 AAA
TAFFTY
TAF AMD
KFTY 212032Z 2121/2218 08005KT P6SM OVC014
     FM220500 09005KT 5SM -DZ BR OVC007
     FM220900 09005KT 2SM -DZ BR OVC004
     FM221600 09005KT 5SM -DZ BR OVC007=

Latest METAR

734
SAUS70 KWBC 212000 RRB
MTRFTY
METAR KFTY 211953Z 08005KT 10SM OVC012 10/06 A3011 RMK AO2 SLP197
T01000061


USA.gov is the U.S. government's official web portal to all federal, state and local government web resources and services.